sensor_id;sensor_type;location;lat;lon;timestamp;pressure;altitude;pressure_sealevel;temperature
19666;BMP180;9980;51.020;7.772;2022-07-21T00:00:20;97758.00;;;25.00
19666;BMP180;9980;51.020;7.772;2022-07-21T00:02:49;97769.00;;;25.00
19666;BMP180;9980;51.020;7.772;2022-07-21T00:05:17;97768.00;;;25.00
19666;BMP180;9980;51.020;7.772;2022-07-21T00:07:45;97772.00;;;25.00
19666;BMP180;9980;51.020;7.772;2022-07-21T00:10:13;97760.00;;;25.00
19666;BMP180;9980;51.020;7.772;2022-07-21T00:12:41;97759.00;;;24.90
19666;BMP180;9980;51.020;7.772;2022-07-21T00:15:10;97750.00;;;24.90
19666;BMP180;9980;51.020;7.772;2022-07-21T00:17:37;97756.00;;;24.90
19666;BMP180;9980;51.020;7.772;2022-07-21T00:20:07;97762.00;;;24.80
19666;BMP180;9980;51.020;7.772;2022-07-21T00:22:35;97766.00;;;24.80
19666;BMP180;9980;51.020;7.772;2022-07-21T00:25:06;97771.00;;;24.80
19666;BMP180;9980;51.020;7.772;2022-07-21T00:27:34;97760.00;;;24.80
19666;BMP180;9980;51.020;7.772;2022-07-21T00:30:07;97778.00;;;24.80
19666;BMP180;9980;51.020;7.772;2022-07-21T00:32:35;97776.00;;;24.80
19666;BMP180;9980;51.020;7.772;2022-07-21T00:35:05;97774.00;;;24.70
19666;BMP180;9980;51.020;7.772;2022-07-21T00:37:32;97771.00;;;24.70
19666;BMP180;9980;51.020;7.772;2022-07-21T00:39:59;97754.00;;;24.70
19666;BMP180;9980;51.020;7.772;2022-07-21T00:42:29;97778.00;;;24.70
19666;BMP180;9980;51.020;7.772;2022-07-21T00:44:58;97780.00;;;24.70
19666;BMP180;9980;51.020;7.772;2022-07-21T00:47:29;97774.00;;;24.60
19666;BMP180;9980;51.020;7.772;2022-07-21T00:49:59;97779.00;;;24.60
19666;BMP180;9980;51.020;7.772;2022-07-21T00:52:26;97788.00;;;24.60
19666;BMP180;9980;51.020;7.772;2022-07-21T00:54:53;97814.00;;;24.60
19666;BMP180;9980;51.020;7.772;2022-07-21T00:57:21;97842.00;;;24.60
19666;BMP180;9980;51.020;7.772;2022-07-21T00:59:48;97857.00;;;24.50
19666;BMP180;9980;51.020;7.772;2022-07-21T01:02:16;97859.00;;;24.50
19666;BMP180;9980;51.020;7.772;2022-07-21T01:04:43;97864.00;;;24.40
19666;BMP180;9980;51.020;7.772;2022-07-21T01:07:11;97848.00;;;24.30
19666;BMP180;9980;51.020;7.772;2022-07-21T01:09:38;97854.00;;;24.30
19666;BMP180;9980;51.020;7.772;2022-07-21T01:12:05;97852.00;;;24.20
19666;BMP180;9980;51.020;7.772;2022-07-21T01:14:33;97844.00;;;24.20
19666;BMP180;9980;51.020;7.772;2022-07-21T01:17:02;97831.00;;;24.10
19666;BMP180;9980;51.020;7.772;2022-07-21T01:19:29;97804.00;;;24.10
19666;BMP180;9980;51.020;7.772;2022-07-21T01:21:57;97797.00;;;24.10
19666;BMP180;9980;51.020;7.772;2022-07-21T01:24:24;97788.00;;;24.00
19666;BMP180;9980;51.020;7.772;2022-07-21T01:26:53;97812.00;;;24.00
19666;BMP180;9980;51.020;7.772;2022-07-21T01:29:21;97804.00;;;24.00
19666;BMP180;9980;51.020;7.772;2022-07-21T01:31:49;97785.00;;;23.90
19666;BMP180;9980;51.020;7.772;2022-07-21T01:34:17;97806.00;;;23.90
19666;BMP180;9980;51.020;7.772;2022-07-21T01:36:45;97826.00;;;23.80
19666;BMP180;9980;51.020;7.772;2022-07-21T01:39:13;97830.00;;;23.70
19666;BMP180;9980;51.020;7.772;2022-07-21T01:42:00;97831.00;;;23.70
19666;BMP180;9980;51.020;7.772;2022-07-21T01:44:27;97839.00;;;23.70
19666;BMP180;9980;51.020;7.772;2022-07-21T01:46:54;97824.00;;;23.60
19666;BMP180;9980;51.020;7.772;2022-07-21T01:49:21;97819.00;;;23.60
19666;BMP180;9980;51.020;7.772;2022-07-21T01:51:49;97817.00;;;23.50
19666;BMP180;9980;51.020;7.772;2022-07-21T01:54:16;97813.00;;;23.50
19666;BMP180;9980;51.020;7.772;2022-07-21T01:56:51;97802.00;;;23.40
19666;BMP180;9980;51.020;7.772;2022-07-21T01:59:18;97801.00;;;23.30
19666;BMP180;9980;51.020;7.772;2022-07-21T02:01:46;97826.00;;;23.30
19666;BMP180;9980;51.020;7.772;2022-07-21T02:04:13;97835.00;;;23.20
19666;BMP180;9980;51.020;7.772;2022-07-21T02:06:42;97839.00;;;23.20
19666;BMP180;9980;51.020;7.772;2022-07-21T02:09:09;97852.00;;;23.20
19666;BMP180;9980;51.020;7.772;2022-07-21T02:11:39;97852.00;;;23.10
19666;BMP180;9980;51.020;7.772;2022-07-21T02:14:06;97839.00;;;23.10
19666;BMP180;9980;51.020;7.772;2022-07-21T02:16:33;97841.00;;;23.10
19666;BMP180;9980;51.020;7.772;2022-07-21T02:19:01;97843.00;;;23.10
19666;BMP180;9980;51.020;7.772;2022-07-21T02:21:27;97863.00;;;23.10
19666;BMP180;9980;51.020;7.772;2022-07-21T02:23:54;97868.00;;;23.00
19666;BMP180;9980;51.020;7.772;2022-07-21T02:26:22;97873.00;;;23.00
19666;BMP180;9980;51.020;7.772;2022-07-21T02:28:49;97856.00;;;23.00
19666;BMP180;9980;51.020;7.772;2022-07-21T02:31:16;97867.00;;;23.00
19666;BMP180;9980;51.020;7.772;2022-07-21T02:33:43;97871.00;;;22.90
19666;BMP180;9980;51.020;7.772;2022-07-21T02:36:10;97870.00;;;22.90
19666;BMP180;9980;51.020;7.772;2022-07-21T02:38:38;97863.00;;;22.90
19666;BMP180;9980;51.020;7.772;2022-07-21T02:41:05;97858.00;;;22.90
19666;BMP180;9980;51.020;7.772;2022-07-21T02:43:32;97860.00;;;22.80
19666;BMP180;9980;51.020;7.772;2022-07-21T02:45:59;97858.00;;;22.80
19666;BMP180;9980;51.020;7.772;2022-07-21T02:48:26;97857.00;;;22.80
19666;BMP180;9980;51.020;7.772;2022-07-21T02:50:53;97856.00;;;22.80
19666;BMP180;9980;51.020;7.772;2022-07-21T02:53:20;97851.00;;;22.80
19666;BMP180;9980;51.020;7.772;2022-07-21T02:55:51;97864.00;;;22.80
19666;BMP180;9980;51.020;7.772;2022-07-21T02:58:26;97848.00;;;22.70
19666;BMP180;9980;51.020;7.772;2022-07-21T03:01:03;97861.00;;;22.70
19666;BMP180;9980;51.020;7.772;2022-07-21T03:03:35;97854.00;;;22.70
19666;BMP180;9980;51.020;7.772;2022-07-21T03:06:04;97864.00;;;22.70
19666;BMP180;9980;51.020;7.772;2022-07-21T03:08:32;97855.00;;;22.60
19666;BMP180;9980;51.020;7.772;2022-07-21T03:10:59;97851.00;;;22.60
19666;BMP180;9980;51.020;7.772;2022-07-21T03:13:26;97841.00;;;22.60
19666;BMP180;9980;51.020;7.772;2022-07-21T03:15:53;97841.00;;;22.60
19666;BMP180;9980;51.020;7.772;2022-07-21T03:18:20;97826.00;;;22.60
19666;BMP180;9980;51.020;7.772;2022-07-21T03:20:47;97829.00;;;22.60
19666;BMP180;9980;51.020;7.772;2022-07-21T03:23:14;97808.00;;;22.60
19666;BMP180;9980;51.020;7.772;2022-07-21T03:25:41;97809.00;;;22.60
19666;BMP180;9980;51.020;7.772;2022-07-21T03:28:08;97802.00;;;22.60
19666;BMP180;9980;51.020;7.772;2022-07-21T03:30:36;97822.00;;;22.60
19666;BMP180;9980;51.020;7.772;2022-07-21T03:33:05;97822.00;;;22.60
19666;BMP180;9980;51.020;7.772;2022-07-21T03:35:33;97803.00;;;22.60
19666;BMP180;9980;51.020;7.772;2022-07-21T03:38:02;97811.00;;;22.60
19666;BMP180;9980;51.020;7.772;2022-07-21T03:40:34;97809.00;;;22.60
19666;BMP180;9980;51.020;7.772;2022-07-21T03:43:03;97814.00;;;22.60
19666;BMP180;9980;51.020;7.772;2022-07-21T03:45:33;97804.00;;;22.60
19666;BMP180;9980;51.020;7.772;2022-07-21T03:48:04;97803.00;;;22.50
19666;BMP180;9980;51.020;7.772;2022-07-21T03:50:32;97800.00;;;22.50
19666;BMP180;9980;51.020;7.772;2022-07-21T03:53:00;97797.00;;;22.50
19666;BMP180;9980;51.020;7.772;2022-07-21T03:55:28;97797.00;;;22.50
19666;BMP180;9980;51.020;7.772;2022-07-21T03:58:02;97793.00;;;22.50
19666;BMP180;9980;51.020;7.772;2022-07-21T04:00:39;97795.00;;;22.50
19666;BMP180;9980;51.020;7.772;2022-07-21T04:03:07;97802.00;;;22.50
19666;BMP180;9980;51.020;7.772;2022-07-21T04:05:36;97804.00;;;22.50
19666;BMP180;9980;51.020;7.772;2022-07-21T04:08:05;97804.00;;;22.50
19666;BMP180;9980;51.020;7.772;2022-07-21T04:10:35;97798.00;;;22.50
19666;BMP180;9980;51.020;7.772;2022-07-21T04:13:06;97782.00;;;22.40
19666;BMP180;9980;51.020;7.772;2022-07-21T04:15:34;97787.00;;;22.50
19666;BMP180;9980;51.020;7.772;2022-07-21T04:18:06;97798.00;;;22.50
19666;BMP180;9980;51.020;7.772;2022-07-21T04:20:33;97812.00;;;22.40
19666;BMP180;9980;51.020;7.772;2022-07-21T04:23:01;97808.00;;;22.40
19666;BMP180;9980;51.020;7.772;2022-07-21T04:25:28;97800.00;;;22.40
19666;BMP180;9980;51.020;7.772;2022-07-21T04:27:57;97807.00;;;22.40
19666;BMP180;9980;51.020;7.772;2022-07-21T04:30:24;97813.00;;;22.40
19666;BMP180;9980;51.020;7.772;2022-07-21T04:32:51;97808.00;;;22.40
19666;BMP180;9980;51.020;7.772;2022-07-21T04:35:19;97814.00;;;22.40
19666;BMP180;9980;51.020;7.772;2022-07-21T04:37:47;97807.00;;;22.40
19666;BMP180;9980;51.020;7.772;2022-07-21T04:40:15;97816.00;;;22.30
19666;BMP180;9980;51.020;7.772;2022-07-21T04:42:44;97807.00;;;22.30
19666;BMP180;9980;51.020;7.772;2022-07-21T04:45:14;97806.00;;;22.30
19666;BMP180;9980;51.020;7.772;2022-07-21T04:47:48;97802.00;;;22.30
19666;BMP180;9980;51.020;7.772;2022-07-21T04:50:18;97798.00;;;22.30
19666;BMP180;9980;51.020;7.772;2022-07-21T04:52:46;97792.00;;;22.30
19666;BMP180;9980;51.020;7.772;2022-07-21T04:55:13;97807.00;;;22.30
19666;BMP180;9980;51.020;7.772;2022-07-21T04:57:44;97818.00;;;22.30
19666;BMP180;9980;51.020;7.772;2022-07-21T05:00:16;97804.00;;;22.30
19666;BMP180;9980;51.020;7.772;2022-07-21T05:02:45;97804.00;;;22.30
19666;BMP180;9980;51.020;7.772;2022-07-21T05:05:12;97811.00;;;22.30
19666;BMP180;9980;51.020;7.772;2022-07-21T05:07:41;97825.00;;;22.30
19666;BMP180;9980;51.020;7.772;2022-07-21T05:10:12;97831.00;;;22.30
19666;BMP180;9980;51.020;7.772;2022-07-21T05:12:39;97820.00;;;22.30
19666;BMP180;9980;51.020;7.772;2022-07-21T05:15:08;97833.00;;;22.30
19666;BMP180;9980;51.020;7.772;2022-07-21T05:17:39;97837.00;;;22.40
19666;BMP180;9980;51.020;7.772;2022-07-21T05:20:07;97835.00;;;22.40
19666;BMP180;9980;51.020;7.772;2022-07-21T05:22:35;97832.00;;;22.40
19666;BMP180;9980;51.020;7.772;2022-07-21T05:25:03;97843.00;;;22.40
19666;BMP180;9980;51.020;7.772;2022-07-21T05:27:31;97841.00;;;22.50
19666;BMP180;9980;51.020;7.772;2022-07-21T05:29:58;97841.00;;;22.50
19666;BMP180;9980;51.020;7.772;2022-07-21T05:32:25;97840.00;;;22.50
19666;BMP180;9980;51.020;7.772;2022-07-21T05:34:52;97842.00;;;22.50
19666;BMP180;9980;51.020;7.772;2022-07-21T05:37:19;97830.00;;;22.50
19666;BMP180;9980;51.020;7.772;2022-07-21T05:39:46;97835.00;;;22.50
19666;BMP180;9980;51.020;7.772;2022-07-21T05:42:13;97833.00;;;22.60
19666;BMP180;9980;51.020;7.772;2022-07-21T05:44:40;97839.00;;;22.60
19666;BMP180;9980;51.020;7.772;2022-07-21T05:47:07;97842.00;;;22.60
19666;BMP180;9980;51.020;7.772;2022-07-21T05:49:34;97856.00;;;22.70
19666;BMP180;9980;51.020;7.772;2022-07-21T05:52:00;97843.00;;;22.70
19666;BMP180;9980;51.020;7.772;2022-07-21T05:54:27;97855.00;;;22.70
19666;BMP180;9980;51.020;7.772;2022-07-21T05:56:54;97837.00;;;22.80
19666;BMP180;9980;51.020;7.772;2022-07-21T05:59:21;97850.00;;;22.80
19666;BMP180;9980;51.020;7.772;2022-07-21T06:01:48;97835.00;;;22.80
19666;BMP180;9980;51.020;7.772;2022-07-21T06:04:15;97846.00;;;22.90
19666;BMP180;9980;51.020;7.772;2022-07-21T06:06:42;97856.00;;;22.90
19666;BMP180;9980;51.020;7.772;2022-07-21T06:09:09;97842.00;;;23.00
19666;BMP180;9980;51.020;7.772;2022-07-21T06:11:36;97845.00;;;23.00
19666;BMP180;9980;51.020;7.772;2022-07-21T06:14:04;97866.00;;;23.10
19666;BMP180;9980;51.020;7.772;2022-07-21T06:16:31;97856.00;;;23.10
19666;BMP180;9980;51.020;7.772;2022-07-21T06:18:59;97858.00;;;23.20
19666;BMP180;9980;51.020;7.772;2022-07-21T06:21:29;97842.00;;;23.20
19666;BMP180;9980;51.020;7.772;2022-07-21T06:23:56;97848.00;;;23.30
19666;BMP180;9980;51.020;7.772;2022-07-21T06:26:26;97855.00;;;23.30
19666;BMP180;9980;51.020;7.772;2022-07-21T06:28:53;97866.00;;;23.40
19666;BMP180;9980;51.020;7.772;2022-07-21T06:31:20;97866.00;;;23.40
19666;BMP180;9980;51.020;7.772;2022-07-21T06:33:47;97850.00;;;23.40
19666;BMP180;9980;51.020;7.772;2022-07-21T06:36:15;97856.00;;;23.50
19666;BMP180;9980;51.020;7.772;2022-07-21T06:38:42;97863.00;;;23.50
19666;BMP180;9980;51.020;7.772;2022-07-21T06:41:09;97862.00;;;23.60
19666;BMP180;9980;51.020;7.772;2022-07-21T06:43:38;97860.00;;;23.60
19666;BMP180;9980;51.020;7.772;2022-07-21T06:46:05;97870.00;;;23.60
19666;BMP180;9980;51.020;7.772;2022-07-21T06:48:32;97873.00;;;23.70
19666;BMP180;9980;51.020;7.772;2022-07-21T06:50:59;97872.00;;;23.70
19666;BMP180;9980;51.020;7.772;2022-07-21T06:53:27;97874.00;;;23.70
19666;BMP180;9980;51.020;7.772;2022-07-21T06:55:54;97869.00;;;23.70
19666;BMP180;9980;51.020;7.772;2022-07-21T06:58:30;97858.00;;;23.80
19666;BMP180;9980;51.020;7.772;2022-07-21T07:01:05;97856.00;;;23.80
19666;BMP180;9980;51.020;7.772;2022-07-21T07:03:33;97868.00;;;23.80
19666;BMP180;9980;51.020;7.772;2022-07-21T07:06:03;97866.00;;;23.80
19666;BMP180;9980;51.020;7.772;2022-07-21T07:08:32;97849.00;;;23.80
19666;BMP180;9980;51.020;7.772;2022-07-21T07:10:59;97862.00;;;23.90
19666;BMP180;9980;51.020;7.772;2022-07-21T07:13:26;97860.00;;;23.90
19666;BMP180;9980;51.020;7.772;2022-07-21T07:16:13;97863.00;;;24.00
19666;BMP180;9980;51.020;7.772;2022-07-21T07:18:40;97865.00;;;24.00
19666;BMP180;9980;51.020;7.772;2022-07-21T07:21:07;97865.00;;;24.10
19666;BMP180;9980;51.020;7.772;2022-07-21T07:23:38;97861.00;;;24.10
19666;BMP180;9980;51.020;7.772;2022-07-21T07:26:07;97859.00;;;24.10
19666;BMP180;9980;51.020;7.772;2022-07-21T07:28:34;97865.00;;;24.20
19666;BMP180;9980;51.020;7.772;2022-07-21T07:31:01;97867.00;;;24.20
19666;BMP180;9980;51.020;7.772;2022-07-21T07:33:28;97871.00;;;24.30
19666;BMP180;9980;51.020;7.772;2022-07-21T07:35:55;97859.00;;;24.30
19666;BMP180;9980;51.020;7.772;2022-07-21T07:38:23;97875.00;;;24.30
19666;BMP180;9980;51.020;7.772;2022-07-21T07:40:50;97861.00;;;24.40
19666;BMP180;9980;51.020;7.772;2022-07-21T07:43:17;97851.00;;;24.50
19666;BMP180;9980;51.020;7.772;2022-07-21T07:45:44;97858.00;;;24.50
19666;BMP180;9980;51.020;7.772;2022-07-21T07:48:11;97872.00;;;24.60
19666;BMP180;9980;51.020;7.772;2022-07-21T07:50:38;97869.00;;;24.70
19666;BMP180;9980;51.020;7.772;2022-07-21T07:53:05;97879.00;;;24.70
19666;BMP180;9980;51.020;7.772;2022-07-21T07:55:32;97869.00;;;24.80
19666;BMP180;9980;51.020;7.772;2022-07-21T07:57:59;97881.00;;;24.90
19666;BMP180;9980;51.020;7.772;2022-07-21T08:00:26;97879.00;;;24.90
19666;BMP180;9980;51.020;7.772;2022-07-21T08:03:13;97882.00;;;25.00
19666;BMP180;9980;51.020;7.772;2022-07-21T08:05:40;97886.00;;;25.00
19666;BMP180;9980;51.020;7.772;2022-07-21T08:08:07;97887.00;;;25.10
19666;BMP180;9980;51.020;7.772;2022-07-21T08:10:35;97886.00;;;25.10
19666;BMP180;9980;51.020;7.772;2022-07-21T08:13:08;97876.00;;;25.20
19666;BMP180;9980;51.020;7.772;2022-07-21T08:15:37;97882.00;;;25.30
19666;BMP180;9980;51.020;7.772;2022-07-21T08:18:04;97872.00;;;25.40
19666;BMP180;9980;51.020;7.772;2022-07-21T08:20:33;97879.00;;;25.50
19666;BMP180;9980;51.020;7.772;2022-07-21T08:23:00;97876.00;;;25.50
19666;BMP180;9980;51.020;7.772;2022-07-21T08:25:27;97863.00;;;25.60
19666;BMP180;9980;51.020;7.772;2022-07-21T08:27:54;97869.00;;;25.70
19666;BMP180;9980;51.020;7.772;2022-07-21T08:30:22;97856.00;;;25.80
19666;BMP180;9980;51.020;7.772;2022-07-21T08:32:58;97846.00;;;25.90
19666;BMP180;9980;51.020;7.772;2022-07-21T08:35:26;97846.00;;;26.00
19666;BMP180;9980;51.020;7.772;2022-07-21T08:37:57;97845.00;;;26.10
19666;BMP180;9980;51.020;7.772;2022-07-21T08:40:29;97855.00;;;26.20
19666;BMP180;9980;51.020;7.772;2022-07-21T08:42:57;97857.00;;;26.30
19666;BMP180;9980;51.020;7.772;2022-07-21T08:45:24;97856.00;;;26.30
19666;BMP180;9980;51.020;7.772;2022-07-21T08:47:54;97886.00;;;26.40
19666;BMP180;9980;51.020;7.772;2022-07-21T08:50:31;97885.00;;;26.40
19666;BMP180;9980;51.020;7.772;2022-07-21T08:52:59;97870.00;;;26.50
19666;BMP180;9980;51.020;7.772;2022-07-21T08:55:36;97879.00;;;26.40
19666;BMP180;9980;51.020;7.772;2022-07-21T08:58:12;97883.00;;;26.50
19666;BMP180;9980;51.020;7.772;2022-07-21T09:00:44;97889.00;;;26.50
19666;BMP180;9980;51.020;7.772;2022-07-21T09:03:26;97883.00;;;26.50
19666;BMP180;9980;51.020;7.772;2022-07-21T09:06:14;97884.00;;;26.50
19666;BMP180;9980;51.020;7.772;2022-07-21T09:08:49;97874.00;;;26.50
19666;BMP180;9980;51.020;7.772;2022-07-21T09:11:25;97872.00;;;26.50
19666;BMP180;9980;51.020;7.772;2022-07-21T09:14:15;97872.00;;;26.50
19666;BMP180;9980;51.020;7.772;2022-07-21T09:16:55;97875.00;;;26.60
19666;BMP180;9980;51.020;7.772;2022-07-21T09:19:35;97875.00;;;26.70
19666;BMP180;9980;51.020;7.772;2022-07-21T09:22:16;97878.00;;;26.80
19666;BMP180;9980;51.020;7.772;2022-07-21T09:24:51;97874.00;;;26.80
19666;BMP180;9980;51.020;7.772;2022-07-21T09:27:22;97866.00;;;26.90
19666;BMP180;9980;51.020;7.772;2022-07-21T09:29:59;97872.00;;;26.90
19666;BMP180;9980;51.020;7.772;2022-07-21T09:32:35;97887.00;;;27.00
19666;BMP180;9980;51.020;7.772;2022-07-21T09:35:07;97880.00;;;27.00
19666;BMP180;9980;51.020;7.772;2022-07-21T09:37:41;97882.00;;;27.00
19666;BMP180;9980;51.020;7.772;2022-07-21T09:40:14;97874.00;;;27.00
19666;BMP180;9980;51.020;7.772;2022-07-21T09:42:48;97874.00;;;27.00
19666;BMP180;9980;51.020;7.772;2022-07-21T09:45:18;97863.00;;;27.10
19666;BMP180;9980;51.020;7.772;2022-07-21T09:47:46;97877.00;;;27.20
19666;BMP180;9980;51.020;7.772;2022-07-21T09:50:16;97871.00;;;27.20
19666;BMP180;9980;51.020;7.772;2022-07-21T09:52:56;97879.00;;;27.30
19666;BMP180;9980;51.020;7.772;2022-07-21T09:55:25;97873.00;;;27.30
19666;BMP180;9980;51.020;7.772;2022-07-21T09:57:52;97855.00;;;27.30
19666;BMP180;9980;51.020;7.772;2022-07-21T10:00:21;97871.00;;;27.30
19666;BMP180;9980;51.020;7.772;2022-07-21T10:02:49;97864.00;;;27.40
19666;BMP180;9980;51.020;7.772;2022-07-21T10:05:20;97871.00;;;27.40
19666;BMP180;9980;51.020;7.772;2022-07-21T10:07:55;97863.00;;;27.50
19666;BMP180;9980;51.020;7.772;2022-07-21T10:10:23;97861.00;;;27.50
19666;BMP180;9980;51.020;7.772;2022-07-21T10:13:10;97873.00;;;27.50
19666;BMP180;9980;51.020;7.772;2022-07-21T10:15:38;97870.00;;;27.60
19666;BMP180;9980;51.020;7.772;2022-07-21T10:18:10;97874.00;;;27.60
19666;BMP180;9980;51.020;7.772;2022-07-21T10:20:41;97864.00;;;27.70
19666;BMP180;9980;51.020;7.772;2022-07-21T10:23:22;97854.00;;;27.80
19666;BMP180;9980;51.020;7.772;2022-07-21T10:25:53;97875.00;;;28.00
19666;BMP180;9980;51.020;7.772;2022-07-21T10:28:23;97871.00;;;28.10
19666;BMP180;9980;51.020;7.772;2022-07-21T10:30:59;97875.00;;;28.20
19666;BMP180;9980;51.020;7.772;2022-07-21T10:39:19;97897.00;;;28.40
19666;BMP180;9980;51.020;7.772;2022-07-21T10:41:50;97895.00;;;28.50
19666;BMP180;9980;51.020;7.772;2022-07-21T10:50:03;97906.00;;;28.40
19666;BMP180;9980;51.020;7.772;2022-07-21T10:58:29;97891.00;;;28.20
19666;BMP180;9980;51.020;7.772;2022-07-21T11:01:05;97885.00;;;28.20
19666;BMP180;9980;51.020;7.772;2022-07-21T11:03:40;97893.00;;;28.30
19666;BMP180;9980;51.020;7.772;2022-07-21T11:06:22;97890.00;;;28.30
19666;BMP180;9980;51.020;7.772;2022-07-21T11:11:39;97882.00;;;28.40
19666;BMP180;9980;51.020;7.772;2022-07-21T11:14:39;97881.00;;;28.40
19666;BMP180;9980;51.020;7.772;2022-07-21T11:17:31;97880.00;;;28.50
19666;BMP180;9980;51.020;7.772;2022-07-21T11:19:57;97892.00;;;28.50
19666;BMP180;9980;51.020;7.772;2022-07-21T11:22:29;97873.00;;;28.50
19666;BMP180;9980;51.020;7.772;2022-07-21T11:25:06;97868.00;;;28.40
19666;BMP180;9980;51.020;7.772;2022-07-21T11:27:36;97871.00;;;28.50
19666;BMP180;9980;51.020;7.772;2022-07-21T11:30:09;97868.00;;;28.50
19666;BMP180;9980;51.020;7.772;2022-07-21T11:32:36;97868.00;;;28.60
19666;BMP180;9980;51.020;7.772;2022-07-21T11:35:06;97886.00;;;28.70
19666;BMP180;9980;51.020;7.772;2022-07-21T11:37:41;97870.00;;;28.70
19666;BMP180;9980;51.020;7.772;2022-07-21T11:40:20;97861.00;;;28.70
19666;BMP180;9980;51.020;7.772;2022-07-21T11:42:51;97871.00;;;28.80
19666;BMP180;9980;51.020;7.772;2022-07-21T11:45:24;97878.00;;;28.80
19666;BMP180;9980;51.020;7.772;2022-07-21T11:47:55;97872.00;;;28.80
19666;BMP180;9980;51.020;7.772;2022-07-21T11:50:27;97875.00;;;28.80
19666;BMP180;9980;51.020;7.772;2022-07-21T11:52:56;97871.00;;;28.80
19666;BMP180;9980;51.020;7.772;2022-07-21T11:55:30;97876.00;;;28.80
19666;BMP180;9980;51.020;7.772;2022-07-21T11:57:57;97880.00;;;28.80
19666;BMP180;9980;51.020;7.772;2022-07-21T12:00:24;97882.00;;;28.80
19666;BMP180;9980;51.020;7.772;2022-07-21T12:02:51;97886.00;;;28.70
19666;BMP180;9980;51.020;7.772;2022-07-21T12:05:19;97883.00;;;28.70
19666;BMP180;9980;51.020;7.772;2022-07-21T12:07:48;97882.00;;;28.70
19666;BMP180;9980;51.020;7.772;2022-07-21T12:19:50;97884.00;;;28.30
19666;BMP180;9980;51.020;7.772;2022-07-21T12:26:50;97898.00;;;28.10
19666;BMP180;9980;51.020;7.772;2022-07-21T12:29:28;97909.00;;;28.00
19666;BMP180;9980;51.020;7.772;2022-07-21T12:31:56;97897.00;;;27.90
19666;BMP180;9980;51.020;7.772;2022-07-21T12:34:23;97896.00;;;27.90
19666;BMP180;9980;51.020;7.772;2022-07-21T12:36:54;97900.00;;;27.80
19666;BMP180;9980;51.020;7.772;2022-07-21T12:39:24;97892.00;;;27.80
19666;BMP180;9980;51.020;7.772;2022-07-21T12:42:28;97896.00;;;27.70
19666;BMP180;9980;51.020;7.772;2022-07-21T12:44:55;97909.00;;;27.70
19666;BMP180;9980;51.020;7.772;2022-07-21T12:47:22;97890.00;;;27.70
19666;BMP180;9980;51.020;7.772;2022-07-21T12:50:03;97902.00;;;27.60
19666;BMP180;9980;51.020;7.772;2022-07-21T12:52:44;97902.00;;;27.70
19666;BMP180;9980;51.020;7.772;2022-07-21T12:55:11;97903.00;;;27.70
19666;BMP180;9980;51.020;7.772;2022-07-21T12:57:38;97903.00;;;27.60
19666;BMP180;9980;51.020;7.772;2022-07-21T13:00:06;97911.00;;;27.60
19666;BMP180;9980;51.020;7.772;2022-07-21T13:02:50;97909.00;;;27.50
19666;BMP180;9980;51.020;7.772;2022-07-21T13:05:19;97905.00;;;27.60
19666;BMP180;9980;51.020;7.772;2022-07-21T13:07:47;97900.00;;;27.50
19666;BMP180;9980;51.020;7.772;2022-07-21T13:10:15;97905.00;;;27.40
19666;BMP180;9980;51.020;7.772;2022-07-21T13:12:42;97917.00;;;27.30
19666;BMP180;9980;51.020;7.772;2022-07-21T13:15:09;97925.00;;;27.20
19666;BMP180;9980;51.020;7.772;2022-07-21T13:17:37;97926.00;;;27.20
19666;BMP180;9980;51.020;7.772;2022-07-21T13:20:05;97918.00;;;27.10
19666;BMP180;9980;51.020;7.772;2022-07-21T13:22:34;97924.00;;;27.00
19666;BMP180;9980;51.020;7.772;2022-07-21T13:25:03;97916.00;;;26.90
19666;BMP180;9980;51.020;7.772;2022-07-21T13:27:31;97918.00;;;26.80
19666;BMP180;9980;51.020;7.772;2022-07-21T13:29:59;97923.00;;;26.70
19666;BMP180;9980;51.020;7.772;2022-07-21T13:32:26;97925.00;;;26.60
19666;BMP180;9980;51.020;7.772;2022-07-21T13:34:53;97920.00;;;26.50
19666;BMP180;9980;51.020;7.772;2022-07-21T13:37:40;97917.00;;;26.40
19666;BMP180;9980;51.020;7.772;2022-07-21T13:40:08;97923.00;;;26.30
19666;BMP180;9980;51.020;7.772;2022-07-21T13:42:56;97920.00;;;26.20
19666;BMP180;9980;51.020;7.772;2022-07-21T13:45:43;97912.00;;;26.10
19666;BMP180;9980;51.020;7.772;2022-07-21T13:48:10;97910.00;;;26.00
19666;BMP180;9980;51.020;7.772;2022-07-21T13:50:37;97913.00;;;26.00
19666;BMP180;9980;51.020;7.772;2022-07-21T13:53:04;97909.00;;;25.90
19666;BMP180;9980;51.020;7.772;2022-07-21T13:55:31;97916.00;;;25.90
19666;BMP180;9980;51.020;7.772;2022-07-21T13:57:58;97925.00;;;25.90
19666;BMP180;9980;51.020;7.772;2022-07-21T14:00:25;97914.00;;;25.80
19666;BMP180;9980;51.020;7.772;2022-07-21T14:02:53;97915.00;;;25.80
19666;BMP180;9980;51.020;7.772;2022-07-21T14:05:19;97899.00;;;25.70
19666;BMP180;9980;51.020;7.772;2022-07-21T14:07:47;97912.00;;;25.70
19666;BMP180;9980;51.020;7.772;2022-07-21T14:10:14;97910.00;;;25.60
19666;BMP180;9980;51.020;7.772;2022-07-21T14:12:41;97899.00;;;25.60
19666;BMP180;9980;51.020;7.772;2022-07-21T14:15:09;97906.00;;;25.50
19666;BMP180;9980;51.020;7.772;2022-07-21T14:17:38;97912.00;;;25.50
19666;BMP180;9980;51.020;7.772;2022-07-21T14:20:05;97915.00;;;25.40
19666;BMP180;9980;51.020;7.772;2022-07-21T14:22:33;97896.00;;;25.30
19666;BMP180;9980;51.020;7.772;2022-07-21T14:25:00;97908.00;;;25.30
19666;BMP180;9980;51.020;7.772;2022-07-21T14:27:53;97910.00;;;25.20
19666;BMP180;9980;51.020;7.772;2022-07-21T14:30:27;97905.00;;;25.20
19666;BMP180;9980;51.020;7.772;2022-07-21T14:32:55;97903.00;;;25.20
19666;BMP180;9980;51.020;7.772;2022-07-21T14:35:23;97905.00;;;25.20
19666;BMP180;9980;51.020;7.772;2022-07-21T14:37:50;97901.00;;;25.20
19666;BMP180;9980;51.020;7.772;2022-07-21T14:40:18;97897.00;;;25.10
19666;BMP180;9980;51.020;7.772;2022-07-21T14:42:47;97907.00;;;25.10
19666;BMP180;9980;51.020;7.772;2022-07-21T14:45:16;97891.00;;;25.00
19666;BMP180;9980;51.020;7.772;2022-07-21T14:47:53;97908.00;;;25.00
19666;BMP180;9980;51.020;7.772;2022-07-21T14:50:23;97908.00;;;25.00
19666;BMP180;9980;51.020;7.772;2022-07-21T14:52:56;97906.00;;;25.00
19666;BMP180;9980;51.020;7.772;2022-07-21T14:55:25;97903.00;;;24.90
19666;BMP180;9980;51.020;7.772;2022-07-21T14:57:54;97897.00;;;24.90
19666;BMP180;9980;51.020;7.772;2022-07-21T15:00:22;97903.00;;;24.90
19666;BMP180;9980;51.020;7.772;2022-07-21T15:02:54;97908.00;;;24.80
19666;BMP180;9980;51.020;7.772;2022-07-21T15:05:22;97901.00;;;24.80
19666;BMP180;9980;51.020;7.772;2022-07-21T15:07:50;97906.00;;;24.80
19666;BMP180;9980;51.020;7.772;2022-07-21T15:10:18;97908.00;;;24.80